METAR Data
IDs: Format: Raw Decoded Include TAF

Data at: 0804 UTC 03 Aug 2021

No METAR found for KOMN

KDAB 030753Z 24004KT 10SM -RA FEW006 OVC150 24/23 A2997 RMK AO2 SLP148 P0000 T02440228